This demonstration page uses our WeatherBlox Daily Observations layout. Learn more.

38.89511, -77.03637

Hourly Observations for April 13, 2017

Temp ( °F °C ) Dew Point ( °F °C ) Humidity (%) Winds ( mph kmh ) Pressure ( in mb ) Visibility ( mi km ) Precip ( " mm )
12:52 am 00:52 Clear 63 17.2 37 2.8 38 38 NNW 10 17 30.3 1026 10 16.09344 0 0
1:52 am 01:52 Mostly Clear 61 16.1 37 2.8 41 41 NNW 9 15 30.3 1026 10 16.09344 0 0
2:52 am 02:52 Mostly Clear 60 15.6 37 2.8 42 42 NNW 6 9 30.3 1026 10 16.09344 0 0
3:52 am 03:52 Partly Cloudy 58 14.4 40 4.4 51 51 N 5 7 30.3 1026 10 16.09344 0 0
4:52 am 04:52 Partly Cloudy 57 13.9 40 4.4 53 53 N 7 11 30.3 1026 10 16.09344 0 0
5:52 am 05:52 Mostly Clear 56 13.3 38 3.3 51 51 N 6 9 30.33 1027 10 16.09344 0 0
6:52 am 06:52 Partly Cloudy 56 13.3 37 2.8 49 49 NNW 9 15 30.36 1028 10 16.09344 0 0
7:52 am 07:52 Mostly Cloudy 59 15 37 2.8 44 44 N 12 19 30.39 1029 10 16.09344 0 0
8:52 am 08:52 Mostly Cloudy 60 15.6 36 2.2 41 41 N 9 15 30.39 1029 10 16.09344 0 0
9:52 am 09:52 Mostly Cloudy 62 16.7 34 1.1 35 35 NNE 8 13 30.39 1029 10 16.09344 0 0
10:52 am 10:52 Cloudy 62 16.7 33 0.6 34 34 N 8 13 30.39 1029 10 16.09344 0 0
11:52 am 11:52 Mostly Cloudy 63 17.2 32 0 31 31 N 3 6 30.39 1029 10 16.09344 0 0
12:52 pm 12:52 Mostly Cloudy 66 18.9 32 0 28 28 N 6 9 30.36 1028 10 16.09344 0 0
1:52 pm 13:52 Partly Cloudy 68 20 29 -1.7 23 23 N 3 6 30.36 1028 10 16.09344 0 0
2:52 pm 14:52 Mostly Cloudy 70 21.1 36 2.2 29 29 NNE 8 13 30.33 1027 10 16.09344 0 0
3:52 pm 15:52 Mostly Cloudy 70 21.1 34 1.1 27 27 N 7 11 30.33 1027 10 16.09344 0 0
4:52 pm 16:52 Cloudy 71 21.7 36 2.2 28 28 NE 5 7 30.3 1026 10 16.09344 0 0
5:12 pm 17:12 Cloudy with Haze 72 22 36 2 27 27 NE 8 13 30.33 1027 2.5 4.02336 0 0
5:21 pm 17:21 Cloudy 70 21.1 37 2.8 30 30 NNE 7 11 30.33 1027 10 16.09344 0 0
5:23 pm 17:23 Mostly Cloudy 70 21.1 37 2.8 30 30 NE 6 9 30.33 1027 10 16.09344 0 0
5:52 pm 17:52 Mostly Cloudy 70 21.1 36 2.2 29 29 NE 8 13 30.3 1026 10 16.09344 0 0
6:52 pm 18:52 Mostly Cloudy 68 20 36 2.2 31 31 NNE 9 15 30.3 1026 10 16.09344 0 0
7:52 pm 19:52 Mostly Cloudy 64 17.8 39 3.9 40 40 ESE 8 13 30.33 1027 10 16.09344 0 0
8:52 pm 20:52 Mostly Cloudy 62 16.7 39 3.9 43 43 ESE 6 9 30.33 1027 10 16.09344 0 0
9:52 pm 21:52 Partly Cloudy 61 16.1 39 3.9 44 44 ENE 3 6 30.36 1028 10 16.09344 0 0
10:52 pm 22:52 Mostly Clear 60 15.6 37 2.8 42 42 ENE 3 6 30.36 1028 10 16.09344 0 0
11:52 pm 23:52 Mostly Clear 59 15 38 3.3 46 46 NNE 3 6 30.33 1027 10 16.09344 0 0

Powered by AerisWeather